createdAt,value
2022-08-03T00:00:01.771Z,20.60
2022-08-03T00:10:15.592Z,20.50
2022-08-03T00:20:17.593Z,20.30
2022-08-03T00:30:19.654Z,20.30
2022-08-03T00:40:22.715Z,20.10
2022-08-03T00:50:26.372Z,20.00
2022-08-03T01:00:30.033Z,19.90
2022-08-03T01:10:45.871Z,19.70
2022-08-03T01:20:53.515Z,19.60
2022-08-03T01:31:03.814Z,19.50
2022-08-03T01:41:15.503Z,19.50
2022-08-03T01:51:22.440Z,19.50
2022-08-03T02:01:25.897Z,19.30
2022-08-03T02:11:49.473Z,19.20
2022-08-03T02:21:57.194Z,19.10
2022-08-03T02:32:07.211Z,19.10
2022-08-03T02:42:12.031Z,19.10
2022-08-03T02:52:16.494Z,18.90
2022-08-03T03:02:20.973Z,18.80
2022-08-03T03:12:27.391Z,18.70
2022-08-03T03:22:30.554Z,18.60
2022-08-03T03:32:33.497Z,18.60
2022-08-03T03:42:35.753Z,18.50
2022-08-03T03:52:37.793Z,18.30
2022-08-03T04:02:41.014Z,18.20
2022-08-03T04:12:50.354Z,18.20
2022-08-03T04:22:55.490Z,18.20
2022-08-03T04:32:59.992Z,18.10
2022-08-03T04:43:02.853Z,18.10
2022-08-03T04:53:05.411Z,18.10
2022-08-03T05:03:23.679Z,18.30
2022-08-03T05:13:27.193Z,18.60
2022-08-03T05:23:29.474Z,18.40
2022-08-03T05:33:31.217Z,18.60
2022-08-03T05:43:33.873Z,18.90
2022-08-03T05:53:40.354Z,18.80
2022-08-03T06:03:42.337Z,19.10
2022-08-03T06:13:45.994Z,19.40
2022-08-03T06:23:55.708Z,19.50
2022-08-03T06:34:32.099Z,19.90
2022-08-03T06:44:20.916Z,20.10
2022-08-03T06:54:24.276Z,20.40
2022-08-03T07:04:26.451Z,20.90
2022-08-03T07:14:28.694Z,21.40
2022-08-03T07:24:31.157Z,22.00
2022-08-03T07:34:34.799Z,23.70
2022-08-03T07:44:36.658Z,25.10
2022-08-03T07:54:38.532Z,26.00
2022-08-03T08:04:40.315Z,26.80
2022-08-03T08:14:43.837Z,27.70
2022-08-03T08:24:46.415Z,28.20
2022-08-03T08:34:48.635Z,28.70
2022-08-03T08:44:50.718Z,29.30
2022-08-03T08:54:52.719Z,29.70
2022-08-03T09:04:56.016Z,30.00
2022-08-03T09:15:15.952Z,30.40
2022-08-03T09:25:24.752Z,30.80
2022-08-03T09:35:53.087Z,31.40
2022-08-03T09:46:07.389Z,32.00
2022-08-03T09:56:35.937Z,32.20
2022-08-03T10:06:31.775Z,32.70
2022-08-03T10:16:39.576Z,33.90
2022-08-03T10:26:49.729Z,34.10
2022-08-03T10:36:55.853Z,34.20
2022-08-03T10:46:58.755Z,34.40
2022-08-03T10:57:18.692Z,34.40
2022-08-03T11:07:28.458Z,34.70
2022-08-03T11:17:30.496Z,35.30
2022-08-03T11:27:34.023Z,35.10
2022-08-03T11:37:35.995Z,35.60
2022-08-03T11:47:50.916Z,35.50
2022-08-03T11:59:15.329Z,36.10
2022-08-03T12:08:19.677Z,35.90
2022-08-03T12:18:23.698Z,35.80
2022-08-03T12:28:36.100Z,36.30
2022-08-03T12:38:42.294Z,36.70
2022-08-03T12:49:17.806Z,36.70
2022-08-03T12:59:34.687Z,37.00
2022-08-03T13:09:55.919Z,37.20
2022-08-03T13:19:58.454Z,37.10
2022-08-03T13:30:00.675Z,37.20
2022-08-03T13:40:04.736Z,37.70
2022-08-03T13:50:08.395Z,37.30
2022-08-03T14:00:10.959Z,37.40
2022-08-03T14:10:13.133Z,37.60
2022-08-03T14:20:36.683Z,37.60
2022-08-03T14:30:41.495Z,37.60
2022-08-03T14:40:43.296Z,37.60
2022-08-03T14:50:50.737Z,37.20
2022-08-03T15:00:56.175Z,37.30
2022-08-03T15:11:04.137Z,37.50
2022-08-03T15:21:16.393Z,37.20
2022-08-03T15:31:36.157Z,37.30
2022-08-03T15:41:41.878Z,37.40
2022-08-03T15:51:45.472Z,36.70
2022-08-03T16:01:49.868Z,36.90
2022-08-03T16:11:52.176Z,36.70
2022-08-03T16:21:54.294Z,36.70
2022-08-03T16:31:57.495Z,36.50
2022-08-03T16:42:01.883Z,36.20
2022-08-03T16:52:04.214Z,35.90
2022-08-03T17:02:10.421Z,35.40
2022-08-03T17:12:14.396Z,34.80
2022-08-03T17:22:21.662Z,34.20
2022-08-03T17:32:24.545Z,33.50
2022-08-03T17:42:31.948Z,32.90
2022-08-03T17:52:48.574Z,32.50
2022-08-03T18:03:18.061Z,32.00
2022-08-03T18:13:32.832Z,31.50
2022-08-03T18:23:36.729Z,31.20
2022-08-03T18:34:16.483Z,30.70
2022-08-03T18:44:37.690Z,30.30
2022-08-03T19:06:09.593Z,29.40
2022-08-03T19:16:44.495Z,29.00
2022-08-03T19:26:52.227Z,28.70
2022-08-03T19:36:55.212Z,28.40
2022-08-03T19:47:11.195Z,28.10
2022-08-03T19:57:22.286Z,27.80
2022-08-03T20:07:27.534Z,27.60
2022-08-03T20:17:56.989Z,27.30
2022-08-03T20:28:07.155Z,27.00
2022-08-03T20:38:17.552Z,26.90
2022-08-03T20:48:22.081Z,26.80
2022-08-03T20:58:24.011Z,26.60
2022-08-03T21:08:28.793Z,26.40
2022-08-03T21:13:00.961Z,29.80
2022-08-03T21:18:33.636Z,26.40
2022-08-03T21:28:35.293Z,26.30
2022-08-03T21:38:38.054Z,26.10
2022-08-03T21:48:43.372Z,26.00
2022-08-03T21:59:01.212Z,25.90
2022-08-03T22:09:03.910Z,25.70
2022-08-03T22:19:05.834Z,25.60
2022-08-03T22:29:11.636Z,25.40
2022-08-03T22:39:14.594Z,25.20
2022-08-03T22:49:31.751Z,25.00
2022-08-03T22:59:40.884Z,24.80
2022-08-03T23:09:47.373Z,24.50
2022-08-03T23:19:49.532Z,24.30
2022-08-03T23:29:53.493Z,24.10
2022-08-03T23:39:57.091Z,23.80
2022-08-03T23:49:59.772Z,23.60
